New Hampshire Logo

Manchester, NH Single Family Real Estate Listings

333 Total Real Estate Listings * Click on table heading to sort
Date Posted Property Type Style Address Price Living Area Lot Size Price/Sq Ft.
2017-10-20 Single Family Cape 171 Fox Manchester, NH 03103 $269,900 2,112 sq. ft. 7,405 sq. ft. $128
2017-10-20 Single Family Colonial; Garrison 34 S Kilby Manchester, NH 03103 $259,900 1,400 sq. ft. 9,148 sq. ft. $186
2017-10-20 Single Family Split Level 1900 Lake Shore Manchester, NH 03109 $235,000 1,738 sq. ft. 26,572 sq. ft. $135
2017-10-19 Single Family Contemporary 158 Pheasant Manchester, NH 03109 $289,000 1,586 sq. ft. 30,056 sq. ft. $182
2017-10-19 Single Family Victorian 25 Dearborn Manchester, NH 03103 $143,900 1,426 sq. ft. 5,227 sq. ft. $101
2017-10-19 Single Family New Englander 59 Garlact Manchester, NH 03109 $217,495 1,208 sq. ft. 10,019 sq. ft. $180
2017-10-19 Single Family Cape 101 Springdale Manchester, NH 03103 $179,900 1,142 sq. ft. 4,792 sq. ft. $158
2017-10-19 Single Family Ranch 25 Dwight Manchester, NH 03104 $235,000 1,340 sq. ft. 7,405 sq. ft. $175
2017-10-19 Single Family Cape 161 Allamino Manchester, NH 03102 $225,000 1,364 sq. ft. 15,682 sq. ft. $165
2017-10-19 Single Family Cape 129 Almond Manchester, NH 03102 $275,000 2,236 sq. ft. 217,800,000 sq. ft. $123
2017-10-19 Single Family Bungalow 162 Sylvester Manchester, NH 03102 $224,900 2,270 sq. ft. 14,375 sq. ft. $99
2017-10-19 Single Family New Englander 78 Ashland Manchester, NH 03104 $144,900 1,620 sq. ft. 5,663 sq. ft. $89
2017-10-19 Single Family Colonial 103 Bismark Manchester, NH 03102 $250,000 2,296 sq. ft. 6,098 sq. ft. $109
2017-10-19 Single Family Cape 12 Crowley Manchester, NH 03103 $199,900 1,344 sq. ft. 4,356 sq. ft. $149
2017-10-18 Single Family New Englander 525 Mast Road Manchester, NH 03102 $234,900 1,450 sq. ft. 34,848 sq. ft. $162
2017-10-18 Single Family Cape 171 Pickering Street Manchester, NH 03104 $309,900 2,493 sq. ft. 45,738 sq. ft. $124
2017-10-18 Single Family Cape 593 Lincoln Manchester, NH 03104 $145,000 1,110 sq. ft. 1,742 sq. ft. $131
2017-10-18 Single Family Ranch 125 Wolcott Manchester, NH 03103 $189,900 1,594 sq. ft. 6,970 sq. ft. $119
2017-10-18 Single Family Bungalow 237 Peabody Manchester, NH 03109 $164,900 940 sq. ft. 7,405 sq. ft. $175
2017-10-17 Single Family Cape; Contemporary 349 Campbell Manchester, NH 03104 $349,900 2,423 sq. ft. 12,197 sq. ft. $144
2017-10-17 Single Family Colonial Unit R Crosswood Manchester, NH 03102 $347,400 1,574 sq. ft. 622,037 sq. ft. $221
2017-10-16 Single Family Split Level; Split Entry 25 Estate Drive Manchester, NH 03104 $249,900 1,130 sq. ft. 7,405 sq. ft. $221
2017-10-16 Single Family Ranch 461 Varney Manchester, NH 03102 $214,900 1,124 sq. ft. 9,148 sq. ft. $191
2017-10-16 Single Family Colonial; New Englander 64 Taylor Manchester, NH 03103 $229,900 1,944 sq. ft. 5,227 sq. ft. $118
2017-10-15 Single Family Cape 51 Murphy Manchester, NH 03103 $234,900 1,296 sq. ft. 7,841 sq. ft. $181
2017-10-14 Single Family Colonial 198 Megan Manchester, NH 03103 $245,000 1,632 sq. ft. 8,276 sq. ft. $150
2017-10-14 Single Family New Englander 569 Merrimack Manchester, NH 03103 $295,000 1,854 sq. ft. 10,454 sq. ft. $159
2017-10-14 Single Family Ranch 401 South Jewett Manchester, NH 03103 $194,500 1,608 sq. ft. 7,405 sq. ft. $121
2017-10-14 Single Family Victorian 935 Union Manchester, NH 03104 $275,000 2,137 sq. ft. 6,970 sq. ft. $129
2017-10-13 Single Family Cape 103 Lockwood Manchester, NH 03102 $244,900 1,579 sq. ft. 6,970 sq. ft. $155
2017-10-13 Single Family Split Entry 383 Pickering Street Manchester, NH 03104 $299,000 1,532 sq. ft. 8,276 sq. ft. $195
2017-10-12 Single Family Cape 33 Rose Manchester, NH 03103 $289,900 2,133 sq. ft. 10,019 sq. ft. $136
2017-10-12 Single Family Victorian 282 Prospect Manchester, NH 03104 $334,900 2,404 sq. ft. 7,841 sq. ft. $139
2017-10-12 Single Family Cape 202 Holly Manchester, NH 03103 $227,500 1,368 sq. ft. 6,098 sq. ft. $166
2017-10-12 Single Family Cape 235 Reed Manchester, NH 03102 $249,900 1,810 sq. ft. 7,405 sq. ft. $138
2017-10-12 Single Family Ranch 190 Morse Manchester, NH 03104 $179,900 996 sq. ft. 36,590 sq. ft. $181
2017-10-11 Single Family Cape 49 Dewey Manchester, NH 03103 $244,900 2,340 sq. ft. 4,792 sq. ft. $105
2017-10-10 Single Family Bungalow 53 Stevens Manchester, NH 03103 $215,000 936 sq. ft. 9,148 sq. ft. $230
2017-10-10 Single Family Split Entry 50 Bernice Manchester, NH 03109 $239,900 1,373 sq. ft. 15,246 sq. ft. $175
2017-10-07 Single Family Ranch 59 Gove Manchester, NH 03102 $149,900 672 sq. ft. 5,663 sq. ft. $223
2017-10-06 Single Family Ranch 601 Cilley Manchester, NH 03103 $209,900 1,380 sq. ft. 5,663 sq. ft. $152
2017-10-06 Single Family Ranch 95 Constant Manchester, NH 03103 $224,900 1,120 sq. ft. 6,534 sq. ft. $201
2017-10-06 Single Family Colonial 105 Prout Manchester, NH 03103 $159,900 1,498 sq. ft. 3,049 sq. ft. $107
2017-10-06 Single Family Ranch 131 Huse Manchester, NH 03103 $249,900 1,304 sq. ft. 21,780 sq. ft. $192
2017-10-06 Single Family Cape; New Englander 15 Mammoth Manchester, NH 03109 $224,900 1,690 sq. ft. 13,504 sq. ft. $133
2017-10-05 Single Family Cape 94 Salem Manchester, NH 03102 $229,000 1,606 sq. ft. 10,019 sq. ft. $143
2017-10-05 Single Family Colonial; New Englander 556 Merrimack Manchester, NH 03103 $249,900 1,900 sq. ft. 8,712 sq. ft. $132
2017-10-05 Single Family Ranch 814 Goffstown Manchester, NH 03102 $250,000 2,392 sq. ft. 24,829 sq. ft. $105
2017-10-04 Single Family Colonial 14 Goebel Manchester, NH 03103 $339,900 2,885 sq. ft. 7,405 sq. ft. $118
2017-10-04 Single Family Cape 37 Orchard Manchester, NH 03109 $209,900 1,778 sq. ft. 5,227 sq. ft. $118
2017-10-04 Single Family Cape 140 Mission Manchester, NH 03104 $224,900 1,396 sq. ft. 10,019 sq. ft. $161
2017-10-03 Single Family Cape 55 Grand Manchester, NH 03109 $243,000 1,428 sq. ft. 7,841 sq. ft. $170
2017-10-03 Single Family New Englander 31 Vernon Manchester, NH 03101 $258,000 1,610 sq. ft. 7,405 sq. ft. $160
2017-10-03 Single Family Colonial 252 Woodcrest Manchester, NH 03109 $314,900 2,080 sq. ft. 14,810 sq. ft. $151
2017-10-03 Single Family Cape 912 Montgomery Manchester, NH 03102 $414,900 2,501 sq. ft. 17,860 sq. ft. $166
2017-10-02 Single Family Colonial 86 Lockwood Manchester, NH 03102 $244,900 1,450 sq. ft. 5,227 sq. ft. $169
2017-10-02 Single Family Cape 231 Morey Manchester, NH 03103 $219,900 1,560 sq. ft. 5,227 sq. ft. $141
2017-10-02 Single Family Colonial LOT 8 Glen Forest Manchester, NH 03109 $375,700 2,176 sq. ft. 28,750 sq. ft. $173
2017-10-02 Single Family Cape 52 Shaunna Manchester, NH 03109 $289,900 1,644 sq. ft. 25,265 sq. ft. $176
2017-10-01 Single Family Cape 231 Oak Manchester, NH 03104 $350,000 2,358 sq. ft. 11,326 sq. ft. $148
2017-09-30 Single Family Ranch 99 Huntington Ave Manchester, NH 03109 $184,900 960 sq. ft. 7,841 sq. ft. $193
2017-09-30 Single Family Ranch 21 Moody Manchester, NH 03103 $189,900 1,224 sq. ft. 4,792 sq. ft. $155
2017-09-29 Single Family Modified; Ranch 151 Lucas Manchester, NH 03109 $299,999 2,588 sq. ft. 53,143 sq. ft. $116
2017-09-28 Single Family New Englander 283 Putnam Manchester, NH 03102 $229,900 1,871 sq. ft. 10,019 sq. ft. $123
2017-09-28 Single Family Contemporary; Victorian 705 Hall Manchester, NH 03104 $199,999 1,549 sq. ft. 4,792 sq. ft. $129
2017-09-28 Single Family New Englander 528 Clay Manchester, NH 03103 $139,900 1,678 sq. ft. 4,792 sq. ft. $83
2017-09-27 Single Family Colonial 771 Maple Manchester, NH 03104 $349,900 3,636 sq. ft. 10,019 sq. ft. $96
2017-09-27 Single Family Manuf/Mobile; Ranch 62 Ledgewood Manchester, NH 03104 $149,000 1,170 sq. ft. 1,742,400 sq. ft. $127
2017-09-27 Single Family Bungalow 316 Amory Manchester, NH 03102 $184,900 1,713 sq. ft. 4,792 sq. ft. $108
2017-09-27 Single Family New Englander 103 St James Manchester, NH 03102 $219,900 1,078 sq. ft. $204
2017-09-27 Single Family Colonial; Farmhouse 120 Stanton Manchester, NH 03103 $357,750 2,156 sq. ft. 20,038 sq. ft. $166
2017-09-26 Single Family Bungalow 752 Hanover Manchester, NH 03104 $184,900 1,258 sq. ft. 4,792 sq. ft. $147
2017-09-25 Single Family Colonial 17 Megan Manchester, NH 03019 $284,900 2,277 sq. ft. 7,841 sq. ft. $125
2017-09-25 Single Family Detached 65 Chase Manchester, NH 03104 $209,900 2,136 sq. ft. $98
2017-09-24 Single Family Multi-Family 166 Cypress Manchester, NH 03103 $255,000 2,240 sq. ft. 8,712 sq. ft. $114
2017-09-23 Single Family Cape 887 Cilley Manchester, NH 03103 $187,500 1,310 sq. ft. 8,276 sq. ft. $143
2017-09-23 Single Family Cape 563 Shasta Manchester, NH 03103 $204,000 1,339 sq. ft. 6,098 sq. ft. $152
2017-09-22 Single Family Bungalow; Ranch 39 Candia Manchester, NH 03109 $221,000 1,358 sq. ft. 5,227 sq. ft. $163
2017-09-22 Single Family Cape; Contemporary 240 Karatzas Manchester, NH 03104 $449,000 2,443 sq. ft. 51,401 sq. ft. $184
2017-09-22 Single Family New Englander 1011 Somerville Manchester, NH 03103 $229,900 1,569 sq. ft. 6,970 sq. ft. $147
2017-09-22 Single Family New Englander 39 Eve Manchester, NH 03104 $250,000 2,016 sq. ft. 22,651 sq. ft. $124
2017-09-22 Single Family Ranch 170 President Manchester, NH 03103 $204,900 1,395 sq. ft. 10,019 sq. ft. $147
2017-09-21 Single Family New Englander 59 Hillcrest Manchester, NH 03103 $214,900 1,394 sq. ft. 4,356 sq. ft. $154
2017-09-21 Single Family New Englander 957 Somerville Manchester, NH 03103 $199,000 1,354 sq. ft. 4,356 sq. ft. $147
2017-09-21 Single Family Colonial 67 Lady Slipper Manchester, NH 03109 $435,000 2,354 sq. ft. 13,068 sq. ft. $185
2017-09-20 Single Family Raised Ranch 350 Front Manchester, NH 03102 $175,000 1,530 sq. ft. 5,663 sq. ft. $114
2017-09-20 Single Family Cape 129 Knowlton Manchester, NH 03103 $189,900 1,246 sq. ft. 5,663 sq. ft. $152
2017-09-20 Single Family Cape 10 Johnson Manchester, NH 03103 $174,900 1,260 sq. ft. 10,454 sq. ft. $139
2017-09-20 Single Family Cape 84 7th Manchester, NH 03104 $224,900 1,155 sq. ft. 9,583 sq. ft. $195
2017-09-20 Single Family New Englander 314 Bridge Manchester, NH 03104 $155,000 1,294 sq. ft. 4,356 sq. ft. $120
2017-09-19 Single Family Ranch 11 Fernand Manchester, NH 03103 $209,900 1,778 sq. ft. 6,098 sq. ft. $118
2017-09-19 Single Family Ranch 135 Glenwood Manchester, NH 03102 $185,000 1,031 sq. ft. 10,019 sq. ft. $179
2017-09-19 Single Family Cape 119 Biron Manchester, NH 03102 $187,900 1,100 sq. ft. 5,227 sq. ft. $171
2017-09-19 Single Family Ranch 1033 So. Beech Manchester, NH 03103 $229,900 1,360 sq. ft. 7,405 sq. ft. $169
2017-09-18 Single Family Cape 233 Linden Manchester, NH 03104 $364,900 3,259 sq. ft. 15,682 sq. ft. $112
2017-09-18 Single Family Contemporary; Detached; Multi-Level; Walkout Lower Level 54 Madison Manchester, NH 03109 $385,000 2,991 sq. ft. $129
2017-09-18 Single Family Ranch 95 Tondreau Manchester, NH 03102 $214,900 1,064 sq. ft. 13,504 sq. ft. $202
2017-09-18 Single Family New Englander 131 Baker Manchester, NH 03103 $259,900 2,211 sq. ft. 9,583 sq. ft. $118
2017-09-18 Single Family Cape 22 Tougas Manchester, NH 03109 $235,000 1,568 sq. ft. 6,970 sq. ft. $150
2017-09-18 Single Family Colonial; Conversion 181 Old Wellington Manchester, NH 03104 $349,900 2,988 sq. ft. 15,246 sq. ft. $117
2017-09-17 Single Family Cape 104 Portsmouth Manchester, NH 03109 $265,000 1,571 sq. ft. 7,841 sq. ft. $169
2017-09-17 Single Family Colonial 600 South Main Manchester, NH 03102 $359,900 2,050 sq. ft. 15,246 sq. ft. $176
2017-09-16 Single Family Cape 254 Maryland Manchester, NH 03104 $255,000 1,456 sq. ft. 10,019 sq. ft. $175
2017-09-16 Single Family Ranch 139 Mitchell Street Manchester, NH 03103 $249,900 1,699 sq. ft. 10,019 sq. ft. $147
2017-09-15 Single Family Victorian 259 Sagamore Manchester, NH 03104 $274,900 2,482 sq. ft. 6,970 sq. ft. $111
2017-09-14 Single Family Colonial 48 Carpenter Manchester, NH 03104 $599,900 5,839 sq. ft. 18,731 sq. ft. $103
2017-09-14 Single Family Cape; New Englander 1802 Candia Manchester, NH 03109 $144,900 1,299 sq. ft. 18,731 sq. ft. $112
2017-09-14 Single Family Ranch 131 Porter Manchester, NH 03103 $225,000 1,115 sq. ft. 5,227 sq. ft. $202
2017-09-14 Single Family Ranch 640 Wellington Hill Manchester, NH 03104 $299,900 2,530 sq. ft. 10,454 sq. ft. $119
2017-09-13 Single Family Cape 112 Villa Manchester, NH 03103 $237,500 1,566 sq. ft. 5,663 sq. ft. $152
2017-09-13 Single Family Cape 78 Armand Manchester, NH 03103 $187,900 1,008 sq. ft. 4,356 sq. ft. $186
2017-09-13 Single Family Cape 200 Boynton Manchester, NH 03102 $189,900 1,380 sq. ft. 5,663 sq. ft. $138
2017-09-13 Single Family Ranch 1718 Belmont Manchester, NH 03104 $250,000 1,446 sq. ft. 9,583 sq. ft. $173
2017-09-13 Single Family Colonial 133 Sandy Brook Manchester, NH 03103 $299,900 2,268 sq. ft. 10,890 sq. ft. $132
2017-09-13 Single Family Ranch 192 Peak Manchester, NH 03104 $237,500 1,199 sq. ft. 7,841 sq. ft. $198
2017-09-12 Single Family New Englander 78 Laurel Manchester, NH 03103 $144,990 1,376 sq. ft. 3,049 sq. ft. $105
2017-09-12 Single Family Colonial; New Englander 321 Laurel Manchester, NH 03103 $130,000 2,147 sq. ft. 3,049 sq. ft. $61
2017-09-12 Single Family Ranch 45 Sweeney Manchester, NH 03102 $199,900 864 sq. ft. 5,663 sq. ft. $231
2017-09-12 Single Family Cape 108 Rockland Ave Manchester, NH 03102 $269,900 1,648 sq. ft. 13,504 sq. ft. $164
2017-09-11 Single Family Cape 187 Peabody Manchester, NH 03109 $224,900 1,304 sq. ft. 8,712 sq. ft. $172
2017-09-11 Single Family Ranch 161 Linden Manchester, NH 03104 $219,900 1,318 sq. ft. 10,019 sq. ft. $167
2017-09-11 Single Family Bungalow 122 Pinard Manchester, NH 03102 $242,500 1,740 sq. ft. 10,019 sq. ft. $139
2017-09-11 Single Family Colonial 191 Whitford Manchester, NH 03104 $299,900 1,836 sq. ft. 30,492 sq. ft. $163
2017-09-09 Single Family Detached 17 Laurmand Manchester, NH 03104 $349,900 1,986 sq. ft. $176
2017-09-08 Single Family Bungalow 660 Montgomery Manchester, NH 03102 $256,900 2,151 sq. ft. 6,534 sq. ft. $119
2017-09-08 Single Family Ranch 131 Woodland Manchester, NH 03109 $319,950 1,514 sq. ft. 12,197 sq. ft. $211
2017-09-08 Single Family Cape 40 Cass Manchester, NH 03103 $224,900 1,300 sq. ft. 9,583 sq. ft. $173
2017-09-08 Single Family Colonial 270 Poplar Manchester, NH 03104 $494,500 3,696 sq. ft. 14,810 sq. ft. $134
2017-09-07 Single Family New Englander 8 Warren Manchester, NH 03104 $134,900 633 sq. ft. 1,742 sq. ft. $213
2017-09-07 Single Family Colonial 66 Aladdin Manchester, NH 03104 $299,000 2,244 sq. ft. 9,583 sq. ft. $133
2017-09-07 Single Family Cape 115 Lovering Manchester, NH 03109 $249,900 1,600 sq. ft. 76,230 sq. ft. $156
2017-09-07 Single Family New Englander 738 Hall Manchester, NH 03104 $210,000 1,593 sq. ft. 3,049 sq. ft. $132
2017-09-07 Single Family Colonial 138 Aladdin Manchester, NH 03104 $319,900 1,728 sq. ft. 10,890 sq. ft. $185
2017-09-06 Single Family Colonial 62 Shepherd Rd Manchester, NH 03104 $399,900 2,428 sq. ft. 8,712 sq. ft. $165
2017-09-06 Single Family Colonial 332 Glen Forest Drive Manchester, NH 03109 $370,458 1,950 sq. ft. 44,431 sq. ft. $190
2017-09-06 Single Family Colonial 3R Glen Forest Drive Manchester, NH 03109 $390,900 2,406 sq. ft. 14,375 sq. ft. $162
2017-09-06 Single Family Split Level 85 Dawson Manchester, NH 03104 $239,900 2,260 sq. ft. 9,148 sq. ft. $106
2017-09-06 Single Family Ranch 201 Dubuque Manchester, NH 03102 $184,900 1,680 sq. ft. 4,792 sq. ft. $110
2017-09-05 Single Family Colonial 383 S Mammoth Manchester, NH 03109 $299,900 1,664 sq. ft. 10,454 sq. ft. $180
2017-09-05 Single Family Ranch 148 Brunelle Manchester, NH 03103 $244,900 1,995 sq. ft. 10,019 sq. ft. $123
2017-09-05 Single Family New Englander 12 Linden Manchester, NH 03104 $169,900 1,306 sq. ft. 5,663 sq. ft. $130
2017-09-05 Single Family Duplex; Townhouse 719 Hevey Manchester, NH 03102 $339,900 3,780 sq. ft. 5,227 sq. ft. $90
2017-09-05 Single Family Ranch 24 Hillcroft Manchester, NH 03104 $272,900 2,222 sq. ft. 8,276 sq. ft. $123
2017-09-05 Single Family Cape 91 Trinity Manchester, NH 03109 $194,900 1,163 sq. ft. 11,761 sq. ft. $168
2017-09-03 Single Family Colonial 445 Ray Manchester, NH 03104 $319,900 2,040 sq. ft. 9,148 sq. ft. $157
2017-09-03 Single Family Colonial 22 Ashmere Manchester, NH 03109 $299,900 1,728 sq. ft. 8,276 sq. ft. $174
2017-09-02 Single Family Colonial 307 Laurel Manchester, NH 03103 $219,000 1,784 sq. ft. 5,227 sq. ft. $123
2017-09-02 Single Family Cape 225 Lafayette Manchester, NH 03102 $199,900 1,482 sq. ft. 4,356 sq. ft. $135
2017-09-01 Single Family Cape 164 Head Manchester, NH 03102 $234,900 1,404 sq. ft. 16,117 sq. ft. $167
2017-09-01 Single Family Colonial 596 South Main Manchester, NH 03102 $359,900 2,050 sq. ft. 15,246 sq. ft. $176
2017-09-01 Single Family Ranch 84 Seames Manchester, NH 03103 $189,900 832 sq. ft. 6,098 sq. ft. $228
2017-09-01 Single Family Cape; Contemporary 160 Dawson Manchester, NH 03104 $338,500 2,530 sq. ft. 14,810 sq. ft. $134
2017-09-01 Single Family Gambrel 721 Coral Manchester, NH 03104 $325,000 1,872 sq. ft. 19,166 sq. ft. $174
2017-09-01 Single Family Colonial 115 Long Pond Brook Manchester, NH 03109 $300,000 1,856 sq. ft. $162
2017-08-31 Single Family Cape 60 Gurtner St Manchester, NH 03104 $269,000 1,756 sq. ft. 8,276 sq. ft. $153
2017-08-31 Single Family Ranch 244 Rosemont Manchester, NH 03103 $263,000 1,876 sq. ft. 13,939 sq. ft. $140
2017-08-31 Single Family Cape 249 Linden Manchester, NH 03104 $244,900 1,551 sq. ft. 8,712 sq. ft. $158
2017-08-31 Single Family Cape 130 Erie Manchester, NH 03102 $299,950 2,132 sq. ft. 10,454 sq. ft. $141
2017-08-31 Single Family Colonial 169 Cushing Manchester, NH 03103 $299,900 1,700 sq. ft. 9,583 sq. ft. $176
2017-08-31 Single Family Cape 68 Thomas Manchester, NH 03103 $234,900 1,912 sq. ft. 9,148 sq. ft. $123
2017-08-30 Single Family New Englander 37 A Manchester, NH 03102 $189,900 1,224 sq. ft. 5,227 sq. ft. $155
2017-08-30 Single Family Ranch 385 Youville Manchester, NH 03102 $374,500 2,650 sq. ft. 19,602 sq. ft. $141
2017-08-28 Single Family Cape 717 South Main Street Manchester, NH 03102 $259,900 2,407 sq. ft. 9,148 sq. ft. $108
2017-08-28 Single Family Bungalow 501 Kelley Manchester, NH 03102 $179,900 1,603 sq. ft. 4,356 sq. ft. $112
2017-08-28 Single Family Split Level 558 Amherst Manchester, NH 03104 $180,000 1,936 sq. ft. 5,227 sq. ft. $93
2017-08-27 Single Family Colonial 441 Whittington Manchester, NH 03104 $309,000 2,622 sq. ft. 12,632 sq. ft. $118
2017-08-25 Single Family Bungalow 231 Arah Manchester, NH 03104 $219,900 1,190 sq. ft. 21,780 sq. ft. $185
2017-08-25 Single Family Ranch 90 Sherburne Manchester, NH 03104 $220,000 1,056 sq. ft. 6,098 sq. ft. $208
2017-08-25 Single Family Ranch 375 Medford Manchester, NH 03109 $159,650 960 sq. ft. 3,485 sq. ft. $166
2017-08-25 Single Family Colonial 15 Danforth Manchester, NH 03104 $374,000 3,242 sq. ft. 21,780 sq. ft. $115
2017-08-24 Single Family Cape 632 Holly Manchester, NH 03103 $205,900 1,456 sq. ft. 6,534 sq. ft. $141
2017-08-23 Single Family Cape 110 S Lincoln Manchester, NH 03103 $179,900 1,080 sq. ft. 6,534 sq. ft. $167
2017-08-23 Single Family Split Level 75 Fairmount Manchester, NH 03104 $269,900 2,086 sq. ft. 15,682 sq. ft. $129
2017-08-22 Single Family New Englander 65 Varney Manchester, NH 03102 $150,000 1,312 sq. ft. 5,227 sq. ft. $114
2017-08-22 Single Family Colonial 65 Jenna Manchester, NH 03104 $299,900 1,872 sq. ft. 23,958 sq. ft. $160
2017-08-21 Single Family New Englander 427 Holly Manchester, NH 03103 $259,900 1,347 sq. ft. 8,276 sq. ft. $193
2017-08-21 Single Family Ranch 142 Norcross Manchester, NH 03109 $209,900 1,056 sq. ft. 6,970 sq. ft. $199
2017-08-20 Single Family Colonial 345 Lindstrom Manchester, NH 03104 $720,000 3,931 sq. ft. 37,462 sq. ft. $183
2017-08-20 Single Family Cape 1661 Brown Manchester, NH 03103 $199,900 1,294 sq. ft. 7,405 sq. ft. $154
2017-08-19 Single Family Cape 29 Patterson Manchester, NH 03102 $224,900 1,428 sq. ft. 5,227 sq. ft. $157
2017-08-19 Single Family Colonial; Condex; Victorian 276 Orange Manchester, NH 03104 $199,900 2,361 sq. ft. $85
2017-08-18 Single Family Ranch 524 Greeley Manchester, NH 03102 $224,900 1,464 sq. ft. 26,572 sq. ft. $154
2017-08-18 Single Family Colonial; Condex; Victorian 278 Orange Manchester, NH 03104 $219,900 3,653 sq. ft. $60
2017-08-18 Single Family Cape 12 Ray Manchester, NH 03104 $229,000 1,105 sq. ft. 4,356 sq. ft. $207
2017-08-18 Single Family Cape 326 Vinton St Manchester, NH 03103 $244,900 1,580 sq. ft. 10,454 sq. ft. $155
2017-08-17 Single Family Colonial 144 Westwind Manchester, NH 03104 $289,900 2,232 sq. ft. 10,019 sq. ft. $130
2017-08-17 Single Family Bungalow 145 Wells Manchester, NH 03104 $236,900 1,116 sq. ft. 11,761 sq. ft. $212
2017-08-17 Single Family Ranch 426 Goffstown Manchester, NH 03102 $234,900 1,676 sq. ft. 13,068 sq. ft. $140
2017-08-17 Single Family New Englander 99 Prout Manchester, NH 03103 $189,000 1,165 sq. ft. 2,614 sq. ft. $162
2017-08-17 Single Family Bungalow 142 Robinson Manchester, NH 03104 $184,500 1,085 sq. ft. 11,761 sq. ft. $170
2017-08-17 Single Family Colonial 349 Paquette Manchester, NH 03104 $519,000 2,808 sq. ft. 20,038 sq. ft. $185
2017-08-17 Single Family Cape 39 Old Orchard Manchester, NH 03103 $269,900 2,215 sq. ft. $122
2017-08-16 Single Family Cape 61 Renard Manchester, NH 03109 $229,900 1,428 sq. ft. 7,405 sq. ft. $161
2017-08-16 Single Family Colonial 76 Gosselin Manchester, NH 03103 $269,900 1,700 sq. ft. 19,602 sq. ft. $159
2017-08-15 Single Family New Englander 611 Howe Manchester, NH 03103 $249,900 1,338 sq. ft. 7,405 sq. ft. $187
2017-08-15 Single Family Cape 58 Arnold Manchester, NH 03102 $249,900 1,442 sq. ft. 18,731 sq. ft. $173
2017-08-14 Single Family Tri-Level 36 Shady Manchester, NH 03104 $265,000 1,972 sq. ft. 16,553 sq. ft. $134
2017-08-14 Single Family New Englander 220 Boutwell Manchester, NH 03102 $199,500 1,411 sq. ft. 4,356 sq. ft. $141
2017-08-14 Single Family Split Level 122 Tilden Manchester, NH 03103 $204,900 1,528 sq. ft. 7,841 sq. ft. $134
2017-08-12 Single Family Split Level 75 South Fremont Manchester, NH 03103 $229,800 1,682 sq. ft. 7,405 sq. ft. $137
2017-08-11 Single Family Colonial 54 Readey Manchester, NH 03104 $309,900 2,176 sq. ft. 9,148 sq. ft. $142
2017-08-10 Single Family Ranch 209 Youville Manchester, NH 03102 $210,000 1,245 sq. ft. 10,019 sq. ft. $169
2017-08-10 Single Family Gambrel; Split Entry 221 Charlotte Manchester, NH 03103 $264,900 1,637 sq. ft. 6,534 sq. ft. $162
2017-08-08 Single Family Cape 93 Rockland Manchester, NH 03102 $189,900 1,250 sq. ft. 16,553 sq. ft. $152
2017-08-08 Single Family Colonial 97 Dearborn Manchester, NH 03103 $248,000 2,102 sq. ft. 3,920 sq. ft. $118
2017-08-08 Single Family Ranch 94 Belmont Manchester, NH 03103 $209,900 1,331 sq. ft. 6,970 sq. ft. $158
2017-08-07 Single Family Colonial 53 Lilac Manchester, NH 03103 $389,000 3,220 sq. ft. 18,295 sq. ft. $121
2017-08-06 Single Family Bungalow; Arts And Crafts 245 Ray Manchester, NH 03104 $299,900 2,100 sq. ft. 10,890 sq. ft. $143
2017-08-04 Single Family Colonial 275 Barrett Manchester, NH 03104 $274,900 1,832 sq. ft. 8,276 sq. ft. $150
2017-08-04 Single Family Bungalow 173 Maplehurst Manchester, NH 03104 $100,000 3,398 sq. ft. 13,068 sq. ft. $29
2017-08-04 Single Family Cape 612 Central Manchester, NH 03103 $249,900 1,879 sq. ft. 12,632 sq. ft. $133
2017-08-03 Single Family Colonial 98 Aladdin Manchester, NH 03104 $315,900 2,684 sq. ft. 10,019 sq. ft. $118
2017-08-02 Single Family Cape 18 Pinard Manchester, NH 03102 $184,900 1,276 sq. ft. 10,890 sq. ft. $145
2017-08-02 Single Family Cape 1365 Belmont Manchester, NH 03104 $246,500 1,456 sq. ft. 7,405 sq. ft. $169
2017-08-01 Single Family Bungalow; Multi-Level 1657 Union Manchester, NH 03104 $329,900 2,226 sq. ft. 27,007 sq. ft. $148
2017-08-01 Single Family Cape 125 Broadway Manchester, NH 03104 $240,000 1,312 sq. ft. 28,314 sq. ft. $183
2017-07-31 Single Family Ranch 37 Liberty Manchester, NH 03109 $207,000 1,338 sq. ft. 13,939 sq. ft. $155
2017-07-29 Single Family Ranch 9 North Acres Manchester, NH 03104 $259,900 2,702 sq. ft. 15,682 sq. ft. $96
2017-07-28 Single Family Bungalow 512 Coolidge Manchester, NH 03102 $199,900 2,660 sq. ft. 5,663 sq. ft. $75
2017-07-28 Single Family Colonial LOT 5 Glen Forest Manchester, NH 03109 $392,800 2,784 sq. ft. 42,253 sq. ft. $141
2017-07-28 Single Family Ranch LOT 2 Glen Forest Manchester, NH 03109 $413,650 2,217 sq. ft. 30,928 sq. ft. $187
2017-07-28 Single Family Colonial LOT 7 Glen Forest Manchester, NH 03109 $406,410 2,165 sq. ft. 33,541 sq. ft. $188
2017-07-28 Single Family Colonial LOT 3 Glen Forest Manchester, NH 03109 $373,950 2,354 sq. ft. 14,375 sq. ft. $159
2017-07-28 Single Family Colonial LOT 6 Glen Forest Manchester, NH 03109 $364,275 2,176 sq. ft. 28,750 sq. ft. $167
2017-07-27 Single Family Colonial 301 Glen Forest Drive Manchester, NH 03109 $463,718 2,354 sq. ft. 62,726 sq. ft. $197
2017-07-27 Single Family Colonial 350 Glen Forest Drive Manchester, NH 03109 $402,810 2,406 sq. ft. 28,314 sq. ft. $167
2017-07-26 Single Family Cape 156 Cedar Hill Manchester, NH 03109 $189,950 1,296 sq. ft. 19,602 sq. ft. $147
2017-07-26 Single Family Colonial; Victorian 346 Walnut Manchester, NH 03104 $300,000 2,646 sq. ft. 5,227 sq. ft. $113
2017-07-26 Single Family Colonial 343 Glen Forest Drive Manchester, NH 03109 $357,720 1,920 sq. ft. 11,326 sq. ft. $186
2017-07-26 Single Family Raised Ranch 407 Oak Manchester, NH 03104 $209,900 1,064 sq. ft. 10,019 sq. ft. $197
2017-07-26 Single Family Townhouse 37 Woodview Manchester, NH 03102 $269,900 1,672 sq. ft. $161
2017-07-25 Single Family Ranch 155 Rose Manchester, NH 03102 $229,900 2,014 sq. ft. 8,712 sq. ft. $114
2017-07-25 Single Family Cape 232 Boynton Manchester, NH 03102 $209,900 1,080 sq. ft. 14,375 sq. ft. $194
2017-07-25 Single Family Bungalow 72 Gove Manchester, NH 03102 $234,900 1,324 sq. ft. 18,731 sq. ft. $177
2017-07-25 Single Family Bungalow 205 Morgan Manchester, NH 03032 $224,900 1,482 sq. ft. 10,019 sq. ft. $152
2017-07-24 Single Family New Englander 1024 Valley Manchester, NH 03103 $189,900 1,682 sq. ft. 4,792 sq. ft. $113
2017-07-23 Single Family Condex 8 Billings Manchester, NH 03103 $149,900 931 sq. ft. 4,356 sq. ft. $161
2017-07-21 Single Family Colonial 153 Tarrytown Manchester, NH 03103 $250,000 2,885 sq. ft. 6,098 sq. ft. $87
2017-07-21 Single Family Gambrel 176 Wilson Street Manchester, NH 03103 $189,000 2,920 sq. ft. 6,098 sq. ft. $65
2017-07-21 Single Family Colonial 197 Sagamore Manchester, NH 03104 $264,900 1,952 sq. ft. 4,356 sq. ft. $136
2017-07-21 Single Family Cape 88 Wason Manchester, NH 03102 $284,900 2,964 sq. ft. 9,583 sq. ft. $96
2017-07-21 Single Family Ranch 756 Mammoth Manchester, NH 03104 $214,800 1,888 sq. ft. 16,117 sq. ft. $114
2017-07-20 Single Family Split Level 944 Hanover Manchester, NH 03103 $279,900 1,548 sq. ft. 10,019 sq. ft. $181
2017-07-17 Single Family Raised Ranch; Split Level 148 Dave St Manchester, NH 03104 $229,900 2,064 sq. ft. 8,712 sq. ft. $111
2017-07-17 Single Family Ranch 16 Memorial Manchester, NH 03103 $249,900 2,170 sq. ft. 9,148 sq. ft. $115
2017-07-16 Single Family Colonial 252 Orange Manchester, NH 03104 $319,900 1,584 sq. ft. 8,276 sq. ft. $202
2017-07-15 Single Family Cape 285 Ohio Manchester, NH 03104 $243,900 1,456 sq. ft. 7,405 sq. ft. $168
2017-07-13 Single Family Colonial; Craftsman 32 Readey Manchester, NH 03104 $549,900 3,812 sq. ft. 19,602 sq. ft. $144
2017-07-13 Single Family Cape 428 Front Manchester, NH 03102 $137,900 853 sq. ft. 4,792 sq. ft. $162
2017-07-13 Single Family Ranch 107 Jewett Manchester, NH 03103 $169,900 1,060 sq. ft. 4,356 sq. ft. $160
2017-07-13 Single Family Freestanding; New Englander; Victorian 763 Hanover Manchester, NH 03104 $229,000 2,450 sq. ft. 5,227 sq. ft. $93
2017-07-12 Single Family Cape 101 Elgin Manchester, NH 03104 $279,700 2,747 sq. ft. 11,326 sq. ft. $102
2017-07-11 Single Family Ranch 106 Brae Burn Manchester, NH 03104 $285,000 2,066 sq. ft. 61,420 sq. ft. $138
2017-07-11 Single Family Colonial Unit M Crosswood Manchester, NH 03102 $339,900 1,486 sq. ft. $229
2017-07-10 Single Family Colonial 72 Rosegate Farm Manchester, NH 03109 $359,900 2,458 sq. ft. 22,651 sq. ft. $146
2017-07-08 Single Family Cape 743 Lake Avenue Manchester, NH 03104 $199,900 1,477 sq. ft. 4,792 sq. ft. $135
2017-07-08 Single Family Tudor 605 Kearney Manchester, NH 03104 $350,000 3,464 sq. ft. 13,068 sq. ft. $101
2017-07-08 Single Family New Englander 601 Hall Manchester, NH 03104 $212,000 1,722 sq. ft. 3,920 sq. ft. $123
2017-07-07 Single Family New Englander 335 Arah Manchester, NH 03104 $245,500 1,658 sq. ft. 7,841 sq. ft. $148
2017-07-06 Single Family Cape 667 Calef Manchester, NH 03103 $239,900 1,355 sq. ft. 8,712 sq. ft. $177
2017-07-05 Single Family Colonial; Victorian 271 Sagamore Manchester, NH 03104 $325,000 2,504 sq. ft. 15,246 sq. ft. $130
2017-07-05 Single Family Cape 201 S. Mammoth Manchester, NH 03109 $220,000 1,236 sq. ft. 37,462 sq. ft. $178
2017-06-29 Single Family 675 & 685 Coolidge Manchester, NH 03105 $1,250,000 2,400 sq. ft. 10,890 sq. ft. $521
2017-06-29 Single Family Cape 65 Jonathan Manchester, NH 03104 $229,900 2,052 sq. ft. 7,405 sq. ft. $112
2017-06-28 Single Family Colonial 640 Upper Central Manchester, NH 03103 $239,900 1,784 sq. ft. 7,841 sq. ft. $134
2017-06-28 Single Family End Unit; Townhouse 74 Riverwalk Manchester, NH 03101 $319,000 2,213 sq. ft. $144
2017-06-28 Single Family Bungalow 32 Arbutus Manchester, NH 03109 $135,000 847 sq. ft. 5,663 sq. ft. $159
2017-06-27 Single Family Colonial 79 Lisa Manchester, NH 03103 $289,900 2,688 sq. ft. 8,712 sq. ft. $108
2017-06-26 Single Family Cape 329 Reed Manchester, NH 03102 $214,500 1,408 sq. ft. 7,405 sq. ft. $152
2017-06-26 Single Family Ranch 182 Kennard Manchester, NH 03104 $239,000 2,130 sq. ft. 19,602 sq. ft. $112
2017-06-26 Single Family Colonial 28 Lisa Manchester, NH 03103 $284,900 2,570 sq. ft. 9,148 sq. ft. $111
2017-06-23 Single Family Split Level 80 Barrett Manchester, NH 03104 $349,900 2,540 sq. ft. 10,019 sq. ft. $138
2017-06-21 Single Family Cape 276 Crosbie Manchester, NH 03104 $245,000 1,428 sq. ft. 11,326 sq. ft. $172
2017-06-20 Single Family Colonial; Garrison 225 Crosbie Manchester, NH 03104 $274,900 1,952 sq. ft. 7,405 sq. ft. $141
2017-06-16 Single Family Cape 115 Flint Manchester, NH 03103 $189,900 941 sq. ft. 4,792 sq. ft. $202
2017-06-14 Single Family Colonial 270 Central Manchester, NH 03103 $162,900 1,423 sq. ft. 4,356 sq. ft. $114
2017-06-14 Single Family Walkout Lower Level 1258 Union Manchester, NH 03104 $1,500,000 5,490 sq. ft. 33,541 sq. ft. $273
2017-06-13 Single Family Ranch 280 Arah Manchester, NH 03104 $209,900 1,236 sq. ft. 33,977 sq. ft. $170
2017-06-08 Single Family Colonial 62 Charlotte Manchester, NH 03103 $289,000 2,388 sq. ft. 6,098 sq. ft. $121
2017-06-07 Single Family Ranch 141 Constant Manchester, NH 03103 $249,900 2,252 sq. ft. 6,970 sq. ft. $111
2017-06-06 Single Family New Englander 567 Hevey Manchester, NH 03102 $189,900 1,414 sq. ft. 4,792 sq. ft. $134
2017-06-02 Single Family Cape 90 Doris Manchester, NH 03103 $181,900 1,200 sq. ft. 6,098 sq. ft. $152
2017-06-02 Single Family Bungalow 192 Arah Manchester, NH 03104 $249,000 1,623 sq. ft. 29,621 sq. ft. $153
2017-06-01 Single Family Gambrel 461 Bodwell Manchester, NH 03109 $299,000 2,284 sq. ft. 20,038 sq. ft. $131
2017-05-31 Single Family Colonial 160 Eddy Manchester, NH 03102 $209,900 2,006 sq. ft. 10,019 sq. ft. $105
2017-05-29 Single Family Cape 110 Crescent Manchester, NH 03103 $259,900 2,440 sq. ft. 7,405 sq. ft. $107
2017-05-29 Single Family Antique 329 River Manchester, NH 03104 $424,900 4,542 sq. ft. 18,731 sq. ft. $94
2017-05-26 Single Family Multi-Family; New Englander 91 Eve Manchester, NH 03104 $234,900 1,767 sq. ft. 32,670 sq. ft. $133
2017-05-26 Single Family Ranch 1112 Union Manchester, NH 03104 $850,000 5,648 sq. ft. 25,700 sq. ft. $150
2017-05-25 Single Family Victorian 25 Monroe Manchester, NH 03104 $314,900 2,763 sq. ft. 16,988 sq. ft. $114
2017-05-22 Single Family Cape; New Englander 199 Barrett Manchester, NH 03104 $267,500 1,560 sq. ft. 7,405 sq. ft. $171
2017-05-19 Single Family Colonial 95 Springwood Manchester, NH 03102 $388,950 2,264 sq. ft. $172
2017-05-19 Single Family Ranch Unit 48 Maple Leaf Manchester, NH 03102 $346,500 1,484 sq. ft. $233
2017-05-19 Single Family New Englander 33 Hosley St Manchester, NH 03103 $169,900 1,092 sq. ft. 2,178 sq. ft. $156
2017-05-18 Single Family Ranch 45 Rosemont Manchester, NH 03103 $149,600 1,152 sq. ft. 7,405 sq. ft. $130
2017-05-18 Single Family Craftsman 22 Readey Manchester, NH 03104 $250,000 1,730 sq. ft. 4,792 sq. ft. $145
2017-05-13 Single Family New Englander 476 Maple Manchester, NH 03104 $189,900 2,400 sq. ft. 3,049 sq. ft. $79
2017-05-11 Single Family Modern Architecture 266 North Acres Manchester, NH 03104 $579,000 4,490 sq. ft. 22,651 sq. ft. $129
2017-05-11 Single Family Tri-Level 1085 Bridge Manchester, NH 03104 $299,900 3,136 sq. ft. 17,424 sq. ft. $96
2017-05-09 Single Family Colonial 1142 Union Manchester, NH 03104 $700,000 5,398 sq. ft. 19,166 sq. ft. $130
2017-05-07 Single Family Colonial 51 Brookfield Manchester, NH 03109 $489,900 2,954 sq. ft. 13,504 sq. ft. $166
2017-05-05 Single Family Colonial 205 Ridge Rd Manchester, NH 03104 $399,900 2,713 sq. ft. 25,265 sq. ft. $147
2017-05-02 Single Family Cape; Carriage; Chalet; Colonial 271 Bodwell Manchester, NH 03109 $229,900 1,945 sq. ft. 14,810 sq. ft. $118
2017-05-01 Single Family Colonial 135 Filips Glen Manchester, NH 03109 $385,000 3,247 sq. ft. 12,197 sq. ft. $119
2017-04-30 Single Family Colonial 206 Thornton Manchester, NH 03102 $177,000 1,590 sq. ft. 4,792 sq. ft. $111
2017-04-24 Single Family Cape 639 N Bay Manchester, NH 03104 $359,900 2,847 sq. ft. 17,424 sq. ft. $126
2017-04-21 Single Family Ranch 73 Miami Manchester, NH 03103 $234,900 1,626 sq. ft. 7,405 sq. ft. $144
2017-04-20 Single Family Colonial 370 Ash Manchester, NH 03104 $299,000 2,226 sq. ft. 6,534 sq. ft. $134
2017-04-10 Single Family New Englander 303 Laurel Manchester, NH 03103 $177,400 1,659 sq. ft. 5,227 sq. ft. $107
2017-04-05 Single Family Cape 454 Smyth Manchester, NH 03104 $249,900 1,926 sq. ft. 10,454 sq. ft. $130
2017-04-01 Single Family Colonial 2159 Elm Manchester, NH 03104 $496,000 4,000 sq. ft. 11,761 sq. ft. $124
2017-03-14 Single Family Garrison 780 Chestnut Street Manchester, NH 03104 $259,900 2,104 sq. ft. 9,583 sq. ft. $124
2017-03-13 Single Family Ranch 598 South Willow Manchester, NH 03103 $275,000 1,888 sq. ft. 5,227 sq. ft. $146
2017-03-10 Single Family Cape 82 Sherburne Manchester, NH 03104 $222,000 1,101 sq. ft. 4,356 sq. ft. $202
2017-02-16 Single Family Colonial 36 Covington Manchester, NH 03104 $389,900 1,547 sq. ft. 15,246 sq. ft. $252
2017-02-08 Single Family Colonial 5 Covington Manchester, NH 03104 $384,900 2,124 sq. ft. 9,148 sq. ft. $181
2017-02-05 Single Family Colonial 55 Lady Slipper Manchester, NH 03109 $449,900 2,165 sq. ft. 13,068 sq. ft. $208
2017-01-28 Single Family Victorian 451 River Manchester, NH 03104 $419,900 3,008 sq. ft. 6,534 sq. ft. $140
2016-10-26 Single Family Colonial 17 Lavender Lane Manchester, NH 03109 $349,900 2,125 sq. ft. 7,405 sq. ft. $165
2016-10-26 Single Family Colonial 29 Lavender Manchester, NH 03109 $349,900 1,908 sq. ft. 18,295 sq. ft. $183
2016-10-26 Single Family Colonial 41 Lavender Lane Manchester, NH 03109 $319,900 1,666 sq. ft. 12,197 sq. ft. $192
2016-09-21 Single Family Ranch 185 Springwood Manchester, NH 03102 $368,500 1,767 sq. ft. $209
2016-09-21 Single Family Ranch 115 Springwood Manchester, NH 03102 $348,500 1,484 sq. ft. $235
2016-09-21 Single Family Ranch 97 Springwood Manchester, NH 03102 $368,500 1,767 sq. ft. $209
2016-09-07 Single Family Colonial Unit 22 Countryside Manchester, NH 03102 $329,900 1,486 sq. ft. $222
2016-09-07 Single Family Colonial Unit 18 Crosswood Manchester, NH 03102 $342,400 1,574 sq. ft. 622,037 sq. ft. $218
2016-09-07 Single Family Colonial Unit 17 Crosswood Manchester, NH 03102 $330,400 1,426 sq. ft. 622,037 sq. ft. $232
2016-09-07 Single Family Colonial Unit H Crosswood Manchester, NH 03102 $329,900 1,448 sq. ft. 622,037 sq. ft. $228
2016-09-07 Single Family Colonial Unit 21 Countryside Manchester, NH 03102 $329,900 1,486 sq. ft. $222
2016-08-22 Single Family Colonial Unit 16 Crosswood Manchester, NH 03102 $327,900 1,450 sq. ft. $226
2016-08-14 Single Family Victorian 69 Brook Manchester, NH 03104 $189,500 2,365 sq. ft. 4,356 sq. ft. $80
2016-06-17 Single Family Bungalow; Ranch 40 Lafayette Manchester, NH 03102 $209,900 1,110 sq. ft. 4,792 sq. ft. $189
2015-03-10 Single Family Colonial 51 Redwood Manchester, NH 03102 $334,836 1,486 sq. ft. $225